sensor_id;sensor_type;location;lat;lon;timestamp;P1;durP1;ratioP1;P2;durP2;ratioP2
26211;SDS011;13951;49.516;6.094;2023-05-10T00:00:50;2.97;;;1.90;;
26211;SDS011;13951;49.516;6.094;2023-05-10T00:03:23;1.90;;;1.70;;
26211;SDS011;13951;49.516;6.094;2023-05-10T00:05:55;2.23;;;1.97;;
26211;SDS011;13951;49.516;6.094;2023-05-10T00:08:29;3.33;;;1.80;;
26211;SDS011;13951;49.516;6.094;2023-05-10T00:11:03;3.20;;;2.20;;
26211;SDS011;13951;49.516;6.094;2023-05-10T00:13:36;2.10;;;1.90;;
26211;SDS011;13951;49.516;6.094;2023-05-10T00:16:09;2.33;;;1.90;;
26211;SDS011;13951;49.516;6.094;2023-05-10T00:18:42;3.57;;;2.47;;
26211;SDS011;13951;49.516;6.094;2023-05-10T00:21:15;2.37;;;2.17;;
26211;SDS011;13951;49.516;6.094;2023-05-10T00:23:48;2.50;;;2.20;;
26211;SDS011;13951;49.516;6.094;2023-05-10T00:26:21;2.60;;;2.17;;
26211;SDS011;13951;49.516;6.094;2023-05-10T00:28:57;2.63;;;2.27;;
26211;SDS011;13951;49.516;6.094;2023-05-10T00:31:31;2.97;;;2.37;;
26211;SDS011;13951;49.516;6.094;2023-05-10T00:34:04;2.53;;;2.23;;
26211;SDS011;13951;49.516;6.094;2023-05-10T00:36:36;3.00;;;2.37;;
26211;SDS011;13951;49.516;6.094;2023-05-10T00:39:11;3.10;;;2.10;;
26211;SDS011;13951;49.516;6.094;2023-05-10T00:41:44;4.27;;;2.30;;
26211;SDS011;13951;49.516;6.094;2023-05-10T00:44:18;3.10;;;1.97;;
26211;SDS011;13951;49.516;6.094;2023-05-10T00:46:51;3.20;;;2.37;;
26211;SDS011;13951;49.516;6.094;2023-05-10T00:49:24;2.83;;;2.53;;
26211;SDS011;13951;49.516;6.094;2023-05-10T00:51:57;4.70;;;2.40;;
26211;SDS011;13951;49.516;6.094;2023-05-10T00:54:31;4.00;;;2.50;;
26211;SDS011;13951;49.516;6.094;2023-05-10T00:57:04;3.40;;;2.10;;
26211;SDS011;13951;49.516;6.094;2023-05-10T00:59:37;3.93;;;2.60;;
26211;SDS011;13951;49.516;6.094;2023-05-10T01:02:10;3.13;;;2.40;;
26211;SDS011;13951;49.516;6.094;2023-05-10T01:04:44;3.20;;;2.20;;
26211;SDS011;13951;49.516;6.094;2023-05-10T01:07:17;3.93;;;2.40;;
26211;SDS011;13951;49.516;6.094;2023-05-10T01:09:50;3.87;;;2.07;;
26211;SDS011;13951;49.516;6.094;2023-05-10T01:12:24;2.90;;;2.20;;
26211;SDS011;13951;49.516;6.094;2023-05-10T01:14:57;2.30;;;2.10;;
26211;SDS011;13951;49.516;6.094;2023-05-10T01:17:30;3.80;;;2.50;;
26211;SDS011;13951;49.516;6.094;2023-05-10T01:20:05;3.17;;;2.47;;
26211;SDS011;13951;49.516;6.094;2023-05-10T01:25:31;4.00;;;3.28;;
26211;SDS011;13951;49.516;6.094;2023-05-10T01:34:20;3.77;;;3.00;;
26211;SDS011;13951;49.516;6.094;2023-05-10T01:37:05;3.97;;;2.80;;
26211;SDS011;13951;49.516;6.094;2023-05-10T01:40:03;3.87;;;2.90;;
26211;SDS011;13951;49.516;6.094;2023-05-10T01:42:58;2.27;;;2.07;;
26211;SDS011;13951;49.516;6.094;2023-05-10T01:45:41;3.63;;;2.33;;
26211;SDS011;13951;49.516;6.094;2023-05-10T01:48:24;4.93;;;2.00;;
26211;SDS011;13951;49.516;6.094;2023-05-10T01:51:00;2.00;;;1.50;;
26211;SDS011;13951;49.516;6.094;2023-05-10T01:53:33;1.37;;;1.10;;
26211;SDS011;13951;49.516;6.094;2023-05-10T01:56:09;1.13;;;1.00;;
26211;SDS011;13951;49.516;6.094;2023-05-10T01:58:43;1.00;;;0.90;;
26211;SDS011;13951;49.516;6.094;2023-05-10T02:01:20;0.70;;;0.70;;
26211;SDS011;13951;49.516;6.094;2023-05-10T02:03:56;1.60;;;0.77;;
26211;SDS011;13951;49.516;6.094;2023-05-10T02:06:30;1.23;;;0.90;;
26211;SDS011;13951;49.516;6.094;2023-05-10T02:09:04;0.93;;;0.77;;
26211;SDS011;13951;49.516;6.094;2023-05-10T02:11:39;2.20;;;0.80;;
26211;SDS011;13951;49.516;6.094;2023-05-10T02:14:15;1.30;;;0.90;;
26211;SDS011;13951;49.516;6.094;2023-05-10T02:16:50;0.83;;;0.70;;
26211;SDS011;13951;49.516;6.094;2023-05-10T02:19:25;1.13;;;1.03;;
26211;SDS011;13951;49.516;6.094;2023-05-10T02:22:01;0.80;;;0.70;;
26211;SDS011;13951;49.516;6.094;2023-05-10T02:24:37;1.73;;;0.90;;
26211;SDS011;13951;49.516;6.094;2023-05-10T02:27:12;0.67;;;0.67;;
26211;SDS011;13951;49.516;6.094;2023-05-10T02:29:48;0.63;;;0.63;;
26211;SDS011;13951;49.516;6.094;2023-05-10T02:32:24;0.90;;;0.90;;
26211;SDS011;13951;49.516;6.094;2023-05-10T02:34:59;0.80;;;0.80;;
26211;SDS011;13951;49.516;6.094;2023-05-10T02:37:33;0.60;;;0.60;;
26211;SDS011;13951;49.516;6.094;2023-05-10T02:40:08;0.60;;;0.60;;
26211;SDS011;13951;49.516;6.094;2023-05-10T02:42:44;0.90;;;0.70;;
26211;SDS011;13951;49.516;6.094;2023-05-10T02:45:19;0.70;;;0.70;;
26211;SDS011;13951;49.516;6.094;2023-05-10T02:47:56;1.50;;;0.80;;
26211;SDS011;13951;49.516;6.094;2023-05-10T02:50:29;2.37;;;1.00;;
26211;SDS011;13951;49.516;6.094;2023-05-10T02:53:15;1.87;;;1.00;;
26211;SDS011;13951;49.516;6.094;2023-05-10T02:55:57;0.90;;;0.87;;
26211;SDS011;13951;49.516;6.094;2023-05-10T02:58:33;1.00;;;0.90;;
26211;SDS011;13951;49.516;6.094;2023-05-10T03:01:06;1.63;;;1.10;;
26211;SDS011;13951;49.516;6.094;2023-05-10T03:03:40;1.10;;;1.00;;
26211;SDS011;13951;49.516;6.094;2023-05-10T03:06:12;1.10;;;1.00;;
26211;SDS011;13951;49.516;6.094;2023-05-10T03:08:45;1.30;;;0.97;;
26211;SDS011;13951;49.516;6.094;2023-05-10T03:11:32;1.63;;;0.90;;
26211;SDS011;13951;49.516;6.094;2023-05-10T03:14:49;2.63;;;1.00;;
26211;SDS011;13951;49.516;6.094;2023-05-10T03:20:25;1.03;;;0.83;;
26211;SDS011;13951;49.516;6.094;2023-05-10T03:23:07;1.20;;;0.95;;
26211;SDS011;13951;49.516;6.094;2023-05-10T03:25:52;1.13;;;0.80;;
26211;SDS011;13951;49.516;6.094;2023-05-10T03:28:25;0.70;;;0.70;;
26211;SDS011;13951;49.516;6.094;2023-05-10T03:30:59;1.53;;;1.00;;
26211;SDS011;13951;49.516;6.094;2023-05-10T03:33:34;1.73;;;0.90;;
26211;SDS011;13951;49.516;6.094;2023-05-10T03:36:07;1.47;;;1.30;;
26211;SDS011;13951;49.516;6.094;2023-05-10T03:38:41;1.47;;;1.03;;
26211;SDS011;13951;49.516;6.094;2023-05-10T03:41:14;0.87;;;0.87;;
26211;SDS011;13951;49.516;6.094;2023-05-10T03:43:47;1.00;;;0.90;;
26211;SDS011;13951;49.516;6.094;2023-05-10T03:46:21;0.90;;;0.90;;
26211;SDS011;13951;49.516;6.094;2023-05-10T03:48:54;0.90;;;0.90;;
26211;SDS011;13951;49.516;6.094;2023-05-10T03:51:28;3.10;;;1.27;;
26211;SDS011;13951;49.516;6.094;2023-05-10T03:54:03;3.73;;;1.20;;
26211;SDS011;13951;49.516;6.094;2023-05-10T03:56:36;1.50;;;1.20;;
26211;SDS011;13951;49.516;6.094;2023-05-10T03:59:10;1.03;;;0.90;;
26211;SDS011;13951;49.516;6.094;2023-05-10T04:01:43;1.10;;;1.00;;
26211;SDS011;13951;49.516;6.094;2023-05-10T04:04:16;1.20;;;1.10;;
26211;SDS011;13951;49.516;6.094;2023-05-10T04:06:53;1.10;;;1.00;;
26211;SDS011;13951;49.516;6.094;2023-05-10T04:09:27;1.00;;;0.90;;
26211;SDS011;13951;49.516;6.094;2023-05-10T04:12:00;1.10;;;0.90;;
26211;SDS011;13951;49.516;6.094;2023-05-10T04:14:34;1.73;;;0.90;;
26211;SDS011;13951;49.516;6.094;2023-05-10T04:17:07;1.27;;;1.00;;
26211;SDS011;13951;49.516;6.094;2023-05-10T04:19:40;1.10;;;1.00;;
26211;SDS011;13951;49.516;6.094;2023-05-10T04:22:13;1.35;;;1.02;;
26211;SDS011;13951;49.516;6.094;2023-05-10T04:24:46;1.07;;;0.97;;
26211;SDS011;13951;49.516;6.094;2023-05-10T04:27:19;2.10;;;0.97;;
26211;SDS011;13951;49.516;6.094;2023-05-10T04:29:52;0.90;;;0.70;;
26211;SDS011;13951;49.516;6.094;2023-05-10T04:32:25;1.00;;;0.90;;
26211;SDS011;13951;49.516;6.094;2023-05-10T04:34:58;0.80;;;0.80;;
26211;SDS011;13951;49.516;6.094;2023-05-10T04:37:31;0.90;;;0.90;;
26211;SDS011;13951;49.516;6.094;2023-05-10T04:40:04;1.93;;;1.20;;
26211;SDS011;13951;49.516;6.094;2023-05-10T04:42:42;2.60;;;1.13;;
26211;SDS011;13951;49.516;6.094;2023-05-10T04:45:16;0.90;;;0.90;;
26211;SDS011;13951;49.516;6.094;2023-05-10T04:47:49;1.00;;;0.90;;
26211;SDS011;13951;49.516;6.094;2023-05-10T04:50:22;1.23;;;1.00;;
26211;SDS011;13951;49.516;6.094;2023-05-10T04:52:55;1.67;;;0.80;;
26211;SDS011;13951;49.516;6.094;2023-05-10T04:55:28;0.80;;;0.80;;
26211;SDS011;13951;49.516;6.094;2023-05-10T04:58:01;2.10;;;0.80;;
26211;SDS011;13951;49.516;6.094;2023-05-10T05:00:35;0.87;;;0.87;;
26211;SDS011;13951;49.516;6.094;2023-05-10T05:03:07;0.73;;;0.73;;
26211;SDS011;13951;49.516;6.094;2023-05-10T05:05:41;1.00;;;0.90;;
26211;SDS011;13951;49.516;6.094;2023-05-10T05:08:14;1.33;;;0.80;;
26211;SDS011;13951;49.516;6.094;2023-05-10T05:10:47;0.80;;;0.80;;
26211;SDS011;13951;49.516;6.094;2023-05-10T05:19:32;0.73;;;0.60;;
26211;SDS011;13951;49.516;6.094;2023-05-10T05:22:06;0.73;;;0.70;;
26211;SDS011;13951;49.516;6.094;2023-05-10T05:24:40;0.57;;;0.57;;
26211;SDS011;13951;49.516;6.094;2023-05-10T05:27:13;0.50;;;0.50;;
26211;SDS011;13951;49.516;6.094;2023-05-10T05:29:46;0.50;;;0.50;;
26211;SDS011;13951;49.516;6.094;2023-05-10T05:32:18;1.03;;;0.70;;
26211;SDS011;13951;49.516;6.094;2023-05-10T05:34:51;0.50;;;0.50;;
26211;SDS011;13951;49.516;6.094;2023-05-10T05:37:24;0.40;;;0.40;;
26211;SDS011;13951;49.516;6.094;2023-05-10T05:39:57;0.90;;;0.60;;
26211;SDS011;13951;49.516;6.094;2023-05-10T05:42:32;0.57;;;0.57;;
26211;SDS011;13951;49.516;6.094;2023-05-10T05:45:05;0.70;;;0.70;;
26211;SDS011;13951;49.516;6.094;2023-05-10T05:47:39;0.70;;;0.70;;
26211;SDS011;13951;49.516;6.094;2023-05-10T05:50:12;0.80;;;0.70;;
26211;SDS011;13951;49.516;6.094;2023-05-10T05:52:46;1.40;;;0.90;;
26211;SDS011;13951;49.516;6.094;2023-05-10T05:55:18;0.70;;;0.70;;
26211;SDS011;13951;49.516;6.094;2023-05-10T05:57:51;0.70;;;0.70;;
26211;SDS011;13951;49.516;6.094;2023-05-10T06:00:26;0.90;;;0.73;;
26211;SDS011;13951;49.516;6.094;2023-05-10T06:02:59;1.90;;;0.90;;
26211;SDS011;13951;49.516;6.094;2023-05-10T06:05:32;1.53;;;0.60;;
26211;SDS011;13951;49.516;6.094;2023-05-10T06:08:05;0.80;;;0.80;;
26211;SDS011;13951;49.516;6.094;2023-05-10T06:10:38;2.70;;;1.00;;
26211;SDS011;13951;49.516;6.094;2023-05-10T06:13:10;0.70;;;0.70;;
26211;SDS011;13951;49.516;6.094;2023-05-10T06:15:44;0.50;;;0.50;;
26211;SDS011;13951;49.516;6.094;2023-05-10T06:18:16;0.93;;;0.82;;
26211;SDS011;13951;49.516;6.094;2023-05-10T06:20:49;1.20;;;0.90;;
26211;SDS011;13951;49.516;6.094;2023-05-10T06:23:23;2.00;;;0.80;;
26211;SDS011;13951;49.516;6.094;2023-05-10T06:25:57;0.60;;;0.60;;
26211;SDS011;13951;49.516;6.094;2023-05-10T06:28:30;2.00;;;0.80;;
26211;SDS011;13951;49.516;6.094;2023-05-10T06:31:04;0.70;;;0.70;;
26211;SDS011;13951;49.516;6.094;2023-05-10T06:33:37;1.30;;;0.70;;
26211;SDS011;13951;49.516;6.094;2023-05-10T06:36:10;0.87;;;0.80;;
26211;SDS011;13951;49.516;6.094;2023-05-10T06:38:43;0.70;;;0.70;;
26211;SDS011;13951;49.516;6.094;2023-05-10T06:41:15;1.80;;;0.70;;
26211;SDS011;13951;49.516;6.094;2023-05-10T06:43:48;1.17;;;0.70;;
26211;SDS011;13951;49.516;6.094;2023-05-10T06:46:21;0.70;;;0.70;;
26211;SDS011;13951;49.516;6.094;2023-05-10T06:48:54;0.67;;;0.60;;
26211;SDS011;13951;49.516;6.094;2023-05-10T06:51:27;1.40;;;0.80;;
26211;SDS011;13951;49.516;6.094;2023-05-10T06:53:59;0.77;;;0.77;;
26211;SDS011;13951;49.516;6.094;2023-05-10T06:56:32;1.43;;;0.80;;
26211;SDS011;13951;49.516;6.094;2023-05-10T06:59:05;0.80;;;0.80;;
26211;SDS011;13951;49.516;6.094;2023-05-10T07:01:39;0.80;;;0.60;;
26211;SDS011;13951;49.516;6.094;2023-05-10T07:04:12;0.80;;;0.80;;
26211;SDS011;13951;49.516;6.094;2023-05-10T07:06:46;1.33;;;0.80;;
26211;SDS011;13951;49.516;6.094;2023-05-10T07:09:21;0.90;;;0.80;;
26211;SDS011;13951;49.516;6.094;2023-05-10T07:11:54;0.90;;;0.80;;
26211;SDS011;13951;49.516;6.094;2023-05-10T07:14:27;0.93;;;0.70;;
26211;SDS011;13951;49.516;6.094;2023-05-10T07:17:00;0.60;;;0.60;;
26211;SDS011;13951;49.516;6.094;2023-05-10T07:19:33;0.50;;;0.50;;
26211;SDS011;13951;49.516;6.094;2023-05-10T07:22:06;1.73;;;0.70;;
26211;SDS011;13951;49.516;6.094;2023-05-10T07:24:40;0.60;;;0.60;;
26211;SDS011;13951;49.516;6.094;2023-05-10T07:27:12;4.83;;;0.90;;
26211;SDS011;13951;49.516;6.094;2023-05-10T07:29:45;0.90;;;0.80;;
26211;SDS011;13951;49.516;6.094;2023-05-10T07:32:18;1.77;;;1.10;;
26211;SDS011;13951;49.516;6.094;2023-05-10T07:34:51;0.80;;;0.77;;
26211;SDS011;13951;49.516;6.094;2023-05-10T07:37:24;0.90;;;0.90;;
26211;SDS011;13951;49.516;6.094;2023-05-10T07:39:57;1.17;;;0.87;;
26211;SDS011;13951;49.516;6.094;2023-05-10T07:42:30;1.67;;;1.17;;
26211;SDS011;13951;49.516;6.094;2023-05-10T07:45:03;1.63;;;1.17;;
26211;SDS011;13951;49.516;6.094;2023-05-10T07:47:38;2.93;;;1.20;;
26211;SDS011;13951;49.516;6.094;2023-05-10T07:50:12;1.30;;;1.20;;
26211;SDS011;13951;49.516;6.094;2023-05-10T07:52:44;1.00;;;1.00;;
26211;SDS011;13951;49.516;6.094;2023-05-10T07:55:18;1.33;;;1.23;;
26211;SDS011;13951;49.516;6.094;2023-05-10T07:57:51;2.60;;;1.20;;
26211;SDS011;13951;49.516;6.094;2023-05-10T08:00:24;4.53;;;1.17;;
26211;SDS011;13951;49.516;6.094;2023-05-10T08:02:57;3.90;;;1.53;;
26211;SDS011;13951;49.516;6.094;2023-05-10T08:05:31;0.90;;;0.90;;
26211;SDS011;13951;49.516;6.094;2023-05-10T08:08:07;3.60;;;1.27;;
26211;SDS011;13951;49.516;6.094;2023-05-10T08:10:40;2.93;;;1.13;;
26211;SDS011;13951;49.516;6.094;2023-05-10T08:13:13;1.67;;;1.20;;
26211;SDS011;13951;49.516;6.094;2023-05-10T08:15:46;4.63;;;1.50;;
26211;SDS011;13951;49.516;6.094;2023-05-10T08:18:19;2.97;;;1.20;;
26211;SDS011;13951;49.516;6.094;2023-05-10T08:20:53;1.87;;;1.30;;
26211;SDS011;13951;49.516;6.094;2023-05-10T08:23:27;4.60;;;1.53;;
26211;SDS011;13951;49.516;6.094;2023-05-10T08:26:00;1.93;;;1.40;;
26211;SDS011;13951;49.516;6.094;2023-05-10T08:28:33;1.13;;;1.03;;
26211;SDS011;13951;49.516;6.094;2023-05-10T08:31:06;5.43;;;1.23;;
26211;SDS011;13951;49.516;6.094;2023-05-10T08:33:39;3.57;;;1.40;;
26211;SDS011;13951;49.516;6.094;2023-05-10T08:36:15;4.33;;;1.20;;
26211;SDS011;13951;49.516;6.094;2023-05-10T08:38:53;3.23;;;0.97;;
26211;SDS011;13951;49.516;6.094;2023-05-10T08:41:27;5.73;;;1.13;;
26211;SDS011;13951;49.516;6.094;2023-05-10T08:44:02;4.27;;;1.30;;
26211;SDS011;13951;49.516;6.094;2023-05-10T08:46:36;3.50;;;1.20;;
26211;SDS011;13951;49.516;6.094;2023-05-10T08:49:13;2.33;;;0.93;;
26211;SDS011;13951;49.516;6.094;2023-05-10T08:51:51;3.10;;;1.13;;
26211;SDS011;13951;49.516;6.094;2023-05-10T08:54:27;3.63;;;1.10;;
26211;SDS011;13951;49.516;6.094;2023-05-10T08:57:00;3.70;;;0.87;;
26211;SDS011;13951;49.516;6.094;2023-05-10T08:59:35;2.07;;;1.10;;
26211;SDS011;13951;49.516;6.094;2023-05-10T09:02:11;3.53;;;1.30;;
26211;SDS011;13951;49.516;6.094;2023-05-10T09:04:49;2.83;;;1.17;;
26211;SDS011;13951;49.516;6.094;2023-05-10T09:07:22;6.07;;;1.30;;
26211;SDS011;13951;49.516;6.094;2023-05-10T09:09:55;2.47;;;1.03;;
26211;SDS011;13951;49.516;6.094;2023-05-10T09:12:29;3.00;;;1.00;;
26211;SDS011;13951;49.516;6.094;2023-05-10T09:15:02;2.97;;;1.00;;
26211;SDS011;13951;49.516;6.094;2023-05-10T09:17:38;2.00;;;0.80;;
26211;SDS011;13951;49.516;6.094;2023-05-10T09:20:13;2.07;;;0.87;;
26211;SDS011;13951;49.516;6.094;2023-05-10T09:22:46;3.07;;;1.40;;
26211;SDS011;13951;49.516;6.094;2023-05-10T09:25:20;2.70;;;1.20;;
26211;SDS011;13951;49.516;6.094;2023-05-10T09:27:54;2.10;;;0.95;;
26211;SDS011;13951;49.516;6.094;2023-05-10T09:30:30;2.40;;;0.88;;
26211;SDS011;13951;49.516;6.094;2023-05-10T09:33:04;4.00;;;0.82;;
26211;SDS011;13951;49.516;6.094;2023-05-10T09:35:37;2.80;;;1.10;;
26211;SDS011;13951;49.516;6.094;2023-05-10T09:38:12;0.93;;;0.85;;
26211;SDS011;13951;49.516;6.094;2023-05-10T09:40:50;3.35;;;1.17;;
26211;SDS011;13951;49.516;6.094;2023-05-10T09:43:26;0.88;;;0.70;;
26211;SDS011;13951;49.516;6.094;2023-05-10T09:45:59;3.75;;;0.80;;
26211;SDS011;13951;49.516;6.094;2023-05-10T09:48:46;0.75;;;0.60;;
26211;SDS011;13951;49.516;6.094;2023-05-10T09:51:20;1.58;;;1.05;;
26211;SDS011;13951;49.516;6.094;2023-05-10T09:56:57;1.38;;;0.75;;
26211;SDS011;13951;49.516;6.094;2023-05-10T09:59:33;0.98;;;0.90;;
26211;SDS011;13951;49.516;6.094;2023-05-10T10:02:07;1.48;;;0.70;;
26211;SDS011;13951;49.516;6.094;2023-05-10T10:04:40;1.20;;;0.60;;
26211;SDS011;13951;49.516;6.094;2023-05-10T10:07:13;3.25;;;0.90;;
26211;SDS011;13951;49.516;6.094;2023-05-10T10:09:46;1.30;;;0.80;;
26211;SDS011;13951;49.516;6.094;2023-05-10T10:12:19;0.80;;;0.68;;
26211;SDS011;13951;49.516;6.094;2023-05-10T10:14:52;0.73;;;0.60;;
26211;SDS011;13951;49.516;6.094;2023-05-10T10:17:26;1.08;;;0.77;;
26211;SDS011;13951;49.516;6.094;2023-05-10T10:20:00;1.75;;;0.85;;
26211;SDS011;13951;49.516;6.094;2023-05-10T10:22:36;0.85;;;0.70;;
26211;SDS011;13951;49.516;6.094;2023-05-10T10:25:10;3.08;;;0.70;;
26211;SDS011;13951;49.516;6.094;2023-05-10T10:33:15;0.77;;;0.70;;
26211;SDS011;13951;49.516;6.094;2023-05-10T10:36:00;3.40;;;0.70;;
26211;SDS011;13951;49.516;6.094;2023-05-10T10:41:33;2.10;;;1.03;;
26211;SDS011;13951;49.516;6.094;2023-05-10T10:49:52;1.37;;;0.73;;
26211;SDS011;13951;49.516;6.094;2023-05-10T10:57:47;3.23;;;0.90;;
26211;SDS011;13951;49.516;6.094;2023-05-10T11:00:35;0.97;;;0.80;;
26211;SDS011;13951;49.516;6.094;2023-05-10T11:03:12;0.60;;;0.60;;
26211;SDS011;13951;49.516;6.094;2023-05-10T11:05:47;2.47;;;0.65;;
26211;SDS011;13951;49.516;6.094;2023-05-10T11:08:31;1.52;;;0.68;;
26211;SDS011;13951;49.516;6.094;2023-05-10T11:11:09;0.63;;;0.63;;
26211;SDS011;13951;49.516;6.094;2023-05-10T11:13:46;1.15;;;0.63;;
26211;SDS011;13951;49.516;6.094;2023-05-10T11:16:23;0.50;;;0.50;;
26211;SDS011;13951;49.516;6.094;2023-05-10T11:19:05;1.08;;;0.68;;
26211;SDS011;13951;49.516;6.094;2023-05-10T11:21:52;0.98;;;0.60;;
26211;SDS011;13951;49.516;6.094;2023-05-10T11:24:57;0.88;;;0.68;;
26211;SDS011;13951;49.516;6.094;2023-05-10T11:27:32;0.77;;;0.63;;
26211;SDS011;13951;49.516;6.094;2023-05-10T11:30:10;0.50;;;0.50;;
26211;SDS011;13951;49.516;6.094;2023-05-10T11:32:44;0.63;;;0.50;;
26211;SDS011;13951;49.516;6.094;2023-05-10T11:35:17;0.95;;;0.60;;
26211;SDS011;13951;49.516;6.094;2023-05-10T11:37:50;2.33;;;0.70;;
26211;SDS011;13951;49.516;6.094;2023-05-10T11:40:22;0.85;;;0.50;;
26211;SDS011;13951;49.516;6.094;2023-05-10T11:42:58;1.90;;;0.60;;
26211;SDS011;13951;49.516;6.094;2023-05-10T11:45:32;2.13;;;0.50;;
26211;SDS011;13951;49.516;6.094;2023-05-10T11:48:05;2.70;;;1.17;;
26211;SDS011;13951;49.516;6.094;2023-05-10T11:50:38;4.28;;;2.97;;
26211;SDS011;13951;49.516;6.094;2023-05-10T11:53:12;2.28;;;0.80;;
26211;SDS011;13951;49.516;6.094;2023-05-10T11:55:45;2.30;;;1.05;;
26211;SDS011;13951;49.516;6.094;2023-05-10T11:58:19;0.93;;;0.55;;
26211;SDS011;13951;49.516;6.094;2023-05-10T12:00:53;1.58;;;0.60;;
26211;SDS011;13951;49.516;6.094;2023-05-10T12:03:26;1.13;;;0.65;;
26211;SDS011;13951;49.516;6.094;2023-05-10T12:06:01;1.42;;;0.70;;
26211;SDS011;13951;49.516;6.094;2023-05-10T12:08:34;2.30;;;0.60;;
26211;SDS011;13951;49.516;6.094;2023-05-10T12:11:08;3.25;;;0.73;;
26211;SDS011;13951;49.516;6.094;2023-05-10T12:13:43;0.63;;;0.60;;
26211;SDS011;13951;49.516;6.094;2023-05-10T12:16:20;0.57;;;0.57;;
26211;SDS011;13951;49.516;6.094;2023-05-10T12:18:55;0.95;;;0.68;;
26211;SDS011;13951;49.516;6.094;2023-05-10T12:21:29;0.85;;;0.60;;
26211;SDS011;13951;49.516;6.094;2023-05-10T12:24:03;0.38;;;0.38;;
26211;SDS011;13951;49.516;6.094;2023-05-10T12:26:37;0.65;;;0.60;;
26211;SDS011;13951;49.516;6.094;2023-05-10T12:29:14;2.08;;;0.65;;
26211;SDS011;13951;49.516;6.094;2023-05-10T12:31:52;0.50;;;0.50;;
26211;SDS011;13951;49.516;6.094;2023-05-10T12:37:04;0.50;;;0.43;;
26211;SDS011;13951;49.516;6.094;2023-05-10T12:39:43;0.50;;;0.50;;
26211;SDS011;13951;49.516;6.094;2023-05-10T12:42:18;1.27;;;0.50;;
26211;SDS011;13951;49.516;6.094;2023-05-10T12:44:54;0.70;;;0.40;;
26211;SDS011;13951;49.516;6.094;2023-05-10T12:47:31;0.40;;;0.40;;
26211;SDS011;13951;49.516;6.094;2023-05-10T12:50:04;1.17;;;0.50;;
26211;SDS011;13951;49.516;6.094;2023-05-10T12:52:37;1.20;;;0.50;;
26211;SDS011;13951;49.516;6.094;2023-05-10T12:55:10;1.52;;;0.90;;
26211;SDS011;13951;49.516;6.094;2023-05-10T12:57:43;0.50;;;0.50;;
26211;SDS011;13951;49.516;6.094;2023-05-10T13:00:16;0.50;;;0.50;;
26211;SDS011;13951;49.516;6.094;2023-05-10T13:02:49;0.50;;;0.40;;
26211;SDS011;13951;49.516;6.094;2023-05-10T13:05:22;0.50;;;0.40;;
26211;SDS011;13951;49.516;6.094;2023-05-10T13:07:55;1.45;;;0.60;;
26211;SDS011;13951;49.516;6.094;2023-05-10T13:10:29;0.93;;;0.52;;
26211;SDS011;13951;49.516;6.094;2023-05-10T13:13:02;0.47;;;0.43;;
26211;SDS011;13951;49.516;6.094;2023-05-10T13:15:35;1.40;;;0.68;;
26211;SDS011;13951;49.516;6.094;2023-05-10T13:18:08;0.50;;;0.50;;
26211;SDS011;13951;49.516;6.094;2023-05-10T13:20:41;0.90;;;0.50;;
26211;SDS011;13951;49.516;6.094;2023-05-10T13:23:16;0.88;;;0.60;;
26211;SDS011;13951;49.516;6.094;2023-05-10T13:25:49;0.45;;;0.45;;
26211;SDS011;13951;49.516;6.094;2023-05-10T13:28:23;4.10;;;0.40;;
26211;SDS011;13951;49.516;6.094;2023-05-10T13:30:56;0.40;;;0.40;;
26211;SDS011;13951;49.516;6.094;2023-05-10T13:33:29;1.67;;;0.50;;
26211;SDS011;13951;49.516;6.094;2023-05-10T13:36:01;0.50;;;0.50;;
26211;SDS011;13951;49.516;6.094;2023-05-10T13:38:34;0.40;;;0.40;;
26211;SDS011;13951;49.516;6.094;2023-05-10T13:41:07;4.22;;;0.88;;
26211;SDS011;13951;49.516;6.094;2023-05-10T13:43:40;1.00;;;0.52;;
26211;SDS011;13951;49.516;6.094;2023-05-10T13:46:13;0.68;;;0.57;;
26211;SDS011;13951;49.516;6.094;2023-05-10T13:48:46;1.85;;;0.50;;
26211;SDS011;13951;49.516;6.094;2023-05-10T13:51:19;1.10;;;0.60;;
26211;SDS011;13951;49.516;6.094;2023-05-10T13:53:52;1.35;;;0.47;;
26211;SDS011;13951;49.516;6.094;2023-05-10T13:56:25;0.85;;;0.47;;
26211;SDS011;13951;49.516;6.094;2023-05-10T13:58:58;1.67;;;0.60;;
26211;SDS011;13951;49.516;6.094;2023-05-10T14:01:31;0.65;;;0.45;;
26211;SDS011;13951;49.516;6.094;2023-05-10T14:04:04;1.20;;;0.50;;
26211;SDS011;13951;49.516;6.094;2023-05-10T14:06:37;0.40;;;0.40;;
26211;SDS011;13951;49.516;6.094;2023-05-10T14:09:10;1.27;;;0.50;;
26211;SDS011;13951;49.516;6.094;2023-05-10T14:11:43;1.75;;;0.60;;
26211;SDS011;13951;49.516;6.094;2023-05-10T14:14:17;0.93;;;0.40;;
26211;SDS011;13951;49.516;6.094;2023-05-10T14:16:50;0.75;;;0.52;;
26211;SDS011;13951;49.516;6.094;2023-05-10T14:19:23;1.58;;;0.60;;
26211;SDS011;13951;49.516;6.094;2023-05-10T14:21:56;0.40;;;0.40;;
26211;SDS011;13951;49.516;6.094;2023-05-10T14:24:29;0.50;;;0.50;;
26211;SDS011;13951;49.516;6.094;2023-05-10T14:27:02;0.80;;;0.70;;
26211;SDS011;13951;49.516;6.094;2023-05-10T14:29:35;0.98;;;0.40;;
26211;SDS011;13951;49.516;6.094;2023-05-10T14:32:07;0.60;;;0.55;;
26211;SDS011;13951;49.516;6.094;2023-05-10T14:34:41;0.60;;;0.55;;
26211;SDS011;13951;49.516;6.094;2023-05-10T14:37:13;1.42;;;0.50;;
26211;SDS011;13951;49.516;6.094;2023-05-10T14:39:47;0.75;;;0.60;;
26211;SDS011;13951;49.516;6.094;2023-05-10T14:42:20;0.68;;;0.40;;
26211;SDS011;13951;49.516;6.094;2023-05-10T14:44:53;0.63;;;0.52;;
26211;SDS011;13951;49.516;6.094;2023-05-10T14:47:26;0.60;;;0.60;;
26211;SDS011;13951;49.516;6.094;2023-05-10T14:49:59;2.75;;;0.52;;
26211;SDS011;13951;49.516;6.094;2023-05-10T14:52:32;7.03;;;3.90;;
26211;SDS011;13951;49.516;6.094;2023-05-10T14:55:05;1.27;;;0.77;;
26211;SDS011;13951;49.516;6.094;2023-05-10T14:57:39;0.60;;;0.60;;
26211;SDS011;13951;49.516;6.094;2023-05-10T15:00:12;0.55;;;0.50;;
26211;SDS011;13951;49.516;6.094;2023-05-10T15:02:48;0.47;;;0.47;;
26211;SDS011;13951;49.516;6.094;2023-05-10T15:05:22;1.23;;;0.70;;
26211;SDS011;13951;49.516;6.094;2023-05-10T15:07:56;0.50;;;0.50;;
26211;SDS011;13951;49.516;6.094;2023-05-10T15:10:28;0.80;;;0.50;;
26211;SDS011;13951;49.516;6.094;2023-05-10T15:13:05;2.75;;;0.57;;
26211;SDS011;13951;49.516;6.094;2023-05-10T15:15:37;0.88;;;0.50;;
26211;SDS011;13951;49.516;6.094;2023-05-10T15:18:10;1.83;;;0.60;;
26211;SDS011;13951;49.516;6.094;2023-05-10T15:20:43;0.95;;;0.50;;
26211;SDS011;13951;49.516;6.094;2023-05-10T15:23:16;1.35;;;0.80;;
26211;SDS011;13951;49.516;6.094;2023-05-10T15:25:50;1.17;;;0.70;;
26211;SDS011;13951;49.516;6.094;2023-05-10T15:28:24;3.08;;;0.73;;
26211;SDS011;13951;49.516;6.094;2023-05-10T15:30:58;0.90;;;0.80;;
26211;SDS011;13951;49.516;6.094;2023-05-10T15:33:31;1.58;;;0.63;;
26211;SDS011;13951;49.516;6.094;2023-05-10T15:36:04;1.30;;;0.60;;
26211;SDS011;13951;49.516;6.094;2023-05-10T15:38:38;0.68;;;0.68;;
26211;SDS011;13951;49.516;6.094;2023-05-10T15:41:11;0.50;;;0.45;;
26211;SDS011;13951;49.516;6.094;2023-05-10T15:43:44;1.30;;;0.60;;
26211;SDS011;13951;49.516;6.094;2023-05-10T15:46:17;0.63;;;0.50;;
26211;SDS011;13951;49.516;6.094;2023-05-10T15:48:49;0.80;;;0.50;;
26211;SDS011;13951;49.516;6.094;2023-05-10T15:51:22;1.35;;;0.50;;
26211;SDS011;13951;49.516;6.094;2023-05-10T15:53:55;2.40;;;1.33;;
26211;SDS011;13951;49.516;6.094;2023-05-10T15:56:39;4.15;;;2.70;;
26211;SDS011;13951;49.516;6.094;2023-05-10T15:59:13;0.70;;;0.70;;
26211;SDS011;13951;49.516;6.094;2023-05-10T16:01:46;0.50;;;0.50;;
26211;SDS011;13951;49.516;6.094;2023-05-10T16:04:19;2.10;;;1.05;;
26211;SDS011;13951;49.516;6.094;2023-05-10T16:06:52;1.55;;;0.57;;
26211;SDS011;13951;49.516;6.094;2023-05-10T16:09:25;0.60;;;0.60;;
26211;SDS011;13951;49.516;6.094;2023-05-10T16:11:58;0.40;;;0.40;;
26211;SDS011;13951;49.516;6.094;2023-05-10T16:14:30;3.00;;;0.60;;